createdAt,value
2018-03-24T00:02:04.428Z,7.57
2018-03-24T00:04:31.852Z,8.27
2018-03-24T00:06:59.293Z,8.27
2018-03-24T00:09:26.759Z,8.33
2018-03-24T00:11:54.196Z,6.20
2018-03-24T00:14:22.160Z,8.10
2018-03-24T00:16:49.595Z,7.90
2018-03-24T00:19:17.058Z,6.63
2018-03-24T00:21:44.520Z,6.53
2018-03-24T00:24:11.961Z,5.33
2018-03-24T00:26:39.673Z,9.47
2018-03-24T00:29:07.130Z,5.73
2018-03-24T00:31:34.590Z,8.83
2018-03-24T00:34:02.068Z,6.93
2018-03-24T00:36:29.523Z,7.00
2018-03-24T00:38:57.036Z,7.00
2018-03-24T00:41:24.587Z,8.10
2018-03-24T00:43:52.041Z,9.10
2018-03-24T00:46:19.493Z,6.93
2018-03-24T00:48:47.029Z,7.43
2018-03-24T00:51:14.920Z,10.40
2018-03-24T00:53:42.568Z,7.33
2018-03-24T00:56:10.013Z,10.33
2018-03-24T00:58:37.470Z,7.93
2018-03-24T01:01:04.902Z,7.43
2018-03-24T01:03:32.914Z,9.50
2018-03-24T01:06:00.791Z,8.63
2018-03-24T01:08:28.233Z,7.80
2018-03-24T01:10:55.700Z,9.37
2018-03-24T01:13:23.146Z,7.53
2018-03-24T01:15:50.607Z,9.27
2018-03-24T01:18:18.049Z,7.23
2018-03-24T01:20:45.491Z,8.47
2018-03-24T01:23:12.953Z,10.33
2018-03-24T01:25:40.398Z,7.07
2018-03-24T01:28:08.616Z,7.40
2018-03-24T01:30:36.344Z,6.93
2018-03-24T01:33:03.772Z,10.07
2018-03-24T01:35:31.445Z,9.87
2018-03-24T01:37:58.889Z,9.80
2018-03-24T01:40:26.346Z,8.23
2018-03-24T01:42:53.817Z,12.80
2018-03-24T01:45:21.281Z,10.77
2018-03-24T01:47:48.747Z,9.73
2018-03-24T01:50:16.202Z,8.50
2018-03-24T01:52:43.907Z,11.60
2018-03-24T01:55:11.352Z,7.80
2018-03-24T01:57:38.794Z,12.90
2018-03-24T02:00:06.268Z,8.80
2018-03-24T02:02:33.717Z,9.80
2018-03-24T02:05:01.618Z,8.33
2018-03-24T02:07:29.052Z,9.20
2018-03-24T02:09:56.514Z,8.70
2018-03-24T02:12:23.978Z,8.90
2018-03-24T02:14:51.421Z,9.33
2018-03-24T02:17:18.882Z,8.50
2018-03-24T02:19:46.321Z,7.90
2018-03-24T02:22:13.789Z,9.37
2018-03-24T02:24:47.698Z,9.80
2018-03-24T02:27:15.144Z,7.77
2018-03-24T02:29:42.710Z,9.80
2018-03-24T02:32:10.166Z,9.80
2018-03-24T02:34:37.607Z,9.20
2018-03-24T02:37:05.063Z,9.40
2018-03-24T02:39:32.509Z,7.57
2018-03-24T02:42:00.261Z,9.07
2018-03-24T02:44:27.714Z,7.60
2018-03-24T02:46:55.145Z,9.63
2018-03-24T02:49:22.608Z,8.77
2018-03-24T02:51:50.057Z,9.47
2018-03-24T02:54:17.507Z,9.27
2018-03-24T02:56:44.965Z,7.60
2018-03-24T02:59:12.408Z,10.27
2018-03-24T03:01:39.871Z,8.53
2018-03-24T03:04:07.313Z,8.90
2018-03-24T03:06:34.787Z,7.60
2018-03-24T03:09:02.214Z,8.77
2018-03-24T03:11:29.753Z,10.20
2018-03-24T03:13:57.208Z,6.57
2018-03-24T03:16:24.662Z,8.47
2018-03-24T03:18:52.129Z,8.37
2018-03-24T03:21:19.595Z,9.00
2018-03-24T03:23:47.045Z,7.27
2018-03-24T03:26:14.510Z,7.73
2018-03-24T03:28:41.951Z,5.93
2018-03-24T03:31:09.427Z,9.57
2018-03-24T03:33:36.868Z,7.03
2018-03-24T03:36:04.301Z,7.80
2018-03-24T03:38:31.769Z,6.30
2018-03-24T03:40:59.213Z,8.10
2018-03-24T03:43:26.665Z,7.83
2018-03-24T03:45:54.103Z,7.00
2018-03-24T03:48:21.549Z,8.00
2018-03-24T03:50:49.006Z,10.10
2018-03-24T03:53:16.464Z,9.10
2018-03-24T03:55:43.925Z,7.87
2018-03-24T03:58:11.371Z,6.60
2018-03-24T04:00:38.820Z,8.77
2018-03-24T04:03:06.269Z,6.37
2018-03-24T04:05:33.705Z,9.47
2018-03-24T04:08:01.174Z,11.33
2018-03-24T04:10:28.609Z,7.73
2018-03-24T04:12:56.072Z,7.43
2018-03-24T04:15:23.535Z,9.07
2018-03-24T04:17:50.980Z,8.53
2018-03-24T04:20:22.010Z,10.40
2018-03-24T04:22:50.229Z,7.37
2018-03-24T04:25:18.211Z,6.37
2018-03-24T04:27:46.527Z,11.77
2018-03-24T04:30:14.741Z,7.27
2018-03-24T04:32:44.016Z,7.47
2018-03-24T04:35:11.474Z,9.87
2018-03-24T04:37:38.937Z,8.70
2018-03-24T04:40:06.385Z,7.40
2018-03-24T04:42:33.828Z,8.77
2018-03-24T04:45:01.286Z,9.43
2018-03-24T04:47:28.726Z,9.73
2018-03-24T04:49:56.184Z,10.50
2018-03-24T04:52:23.640Z,7.80
2018-03-24T04:54:51.106Z,7.90
2018-03-24T04:57:18.563Z,8.33
2018-03-24T04:59:45.991Z,8.27
2018-03-24T05:02:13.451Z,7.00
2018-03-24T05:04:40.918Z,10.63
2018-03-24T05:07:09.131Z,9.90
2018-03-24T05:09:36.616Z,9.23
2018-03-24T05:12:04.025Z,7.27
2018-03-24T05:14:31.483Z,10.67
2018-03-24T05:16:58.949Z,6.90
2018-03-24T05:19:27.163Z,7.50
2018-03-24T05:21:54.636Z,10.30
2018-03-24T05:24:22.074Z,8.20
2018-03-24T05:26:49.523Z,7.33
2018-03-24T05:29:16.985Z,8.63
2018-03-24T05:31:44.457Z,8.60
2018-03-24T05:34:11.912Z,12.10
2018-03-24T05:36:39.608Z,10.67
2018-03-24T05:39:07.056Z,10.73
2018-03-24T05:41:34.518Z,8.47
2018-03-24T05:44:01.953Z,8.37
2018-03-24T05:46:29.402Z,7.33
2018-03-24T05:48:56.871Z,9.50
2018-03-24T05:51:24.343Z,7.37
2018-03-24T05:53:51.807Z,10.00
2018-03-24T05:56:19.246Z,9.77
2018-03-24T05:58:46.692Z,9.60
2018-03-24T06:01:14.166Z,10.90
2018-03-24T06:03:41.610Z,10.03
2018-03-24T06:06:09.063Z,7.73
2018-03-24T06:08:36.509Z,9.63
2018-03-24T06:11:03.958Z,8.80
2018-03-24T06:13:31.404Z,9.20
2018-03-24T06:15:58.854Z,8.13
2018-03-24T06:18:26.323Z,12.30
2018-03-24T06:20:53.764Z,9.70
2018-03-24T06:23:21.209Z,9.30
2018-03-24T06:25:48.662Z,7.73
2018-03-24T06:28:16.109Z,8.73
2018-03-24T06:30:45.459Z,7.07
2018-03-24T06:33:12.924Z,9.23
2018-03-24T06:35:40.378Z,11.67
2018-03-24T06:38:07.872Z,9.37
2018-03-24T06:40:35.277Z,12.10
2018-03-24T06:43:02.729Z,8.97
2018-03-24T06:45:30.201Z,11.67
2018-03-24T06:47:57.660Z,9.80
2018-03-24T06:50:25.098Z,8.90
2018-03-24T06:52:52.555Z,11.63
2018-03-24T06:55:21.574Z,10.60
2018-03-24T06:57:48.964Z,9.63
2018-03-24T07:00:16.423Z,9.27
2018-03-24T07:02:45.022Z,9.50
2018-03-24T07:05:12.464Z,8.30
2018-03-24T07:07:39.964Z,10.07
2018-03-24T07:10:07.358Z,9.13
2018-03-24T07:12:34.978Z,7.70
2018-03-24T07:15:02.429Z,13.43
2018-03-24T07:17:29.881Z,9.43
2018-03-24T07:19:57.360Z,9.03
2018-03-24T07:22:24.799Z,12.97
2018-03-24T07:24:52.256Z,9.37
2018-03-24T07:27:19.875Z,8.80
2018-03-24T07:29:47.319Z,10.23
2018-03-24T07:32:14.774Z,10.30
2018-03-24T07:34:42.221Z,9.53
2018-03-24T07:37:09.657Z,9.83
2018-03-24T07:39:37.119Z,9.03
2018-03-24T07:42:04.567Z,9.43
2018-03-24T07:44:32.030Z,10.67
2018-03-24T07:46:59.474Z,8.63
2018-03-24T07:49:26.911Z,9.13
2018-03-24T07:51:54.382Z,9.57
2018-03-24T07:54:21.813Z,10.07
2018-03-24T07:56:49.261Z,9.10
2018-03-24T07:59:16.697Z,9.63
2018-03-24T08:01:44.174Z,10.03
2018-03-24T08:04:11.680Z,10.30
2018-03-24T08:06:39.098Z,10.07
2018-03-24T08:09:06.566Z,11.03
2018-03-24T08:11:34.027Z,9.67
2018-03-24T08:14:01.466Z,7.30
2018-03-24T08:16:28.916Z,8.47
2018-03-24T08:18:56.369Z,9.60
2018-03-24T08:21:23.832Z,11.17
2018-03-24T08:23:51.278Z,10.83
2018-03-24T08:26:18.721Z,11.87
2018-03-24T08:28:46.184Z,10.00
2018-03-24T08:31:13.661Z,9.33
2018-03-24T08:33:41.113Z,9.87
2018-03-24T08:36:08.558Z,11.13
2018-03-24T08:38:36.001Z,9.30
2018-03-24T08:41:03.664Z,10.50
2018-03-24T08:43:31.117Z,10.70
2018-03-24T08:45:58.573Z,8.17
2018-03-24T08:48:26.014Z,9.90
2018-03-24T08:50:53.468Z,10.00
2018-03-24T08:53:20.922Z,10.03
2018-03-24T08:55:49.122Z,9.50
2018-03-24T08:58:16.584Z,9.20
2018-03-24T09:00:44.025Z,9.07
2018-03-24T09:03:11.469Z,10.00
2018-03-24T09:05:38.989Z,9.83
2018-03-24T09:08:06.432Z,9.93
2018-03-24T09:10:33.893Z,9.83
2018-03-24T09:13:01.342Z,8.83
2018-03-24T09:15:28.781Z,9.60
2018-03-24T09:17:56.463Z,9.20
2018-03-24T09:20:23.903Z,10.70
2018-03-24T09:22:51.354Z,9.03
2018-03-24T09:25:18.885Z,9.40
2018-03-24T09:27:46.318Z,8.97
2018-03-24T09:30:13.760Z,9.50
2018-03-24T09:32:41.225Z,12.53
2018-03-24T09:35:08.680Z,11.10
2018-03-24T09:37:36.122Z,9.70
2018-03-24T09:40:03.569Z,9.50
2018-03-24T09:42:31.038Z,9.23
2018-03-24T09:44:58.483Z,9.80
2018-03-24T09:47:25.991Z,11.47
2018-03-24T09:49:53.385Z,10.63
2018-03-24T09:52:20.823Z,10.70
2018-03-24T09:54:48.273Z,10.17
2018-03-24T09:57:15.714Z,9.83
2018-03-24T09:59:43.186Z,9.80
2018-03-24T10:02:10.622Z,9.37
2018-03-24T10:04:38.282Z,9.37
2018-03-24T10:07:06.050Z,9.47
2018-03-24T10:09:33.482Z,8.80
2018-03-24T10:12:00.926Z,7.97
2018-03-24T10:14:28.369Z,9.00
2018-03-24T10:16:56.580Z,10.07
2018-03-24T10:19:24.036Z,8.87
2018-03-24T10:25:08.293Z,7.67
2018-03-24T10:27:35.874Z,7.93
2018-03-24T10:30:03.330Z,7.50
2018-03-24T10:32:34.599Z,8.13
2018-03-24T10:35:05.864Z,7.53
2018-03-24T10:37:38.992Z,6.07
2018-03-24T10:40:06.449Z,5.43
2018-03-24T10:42:34.021Z,8.10
2018-03-24T10:45:01.453Z,7.17
2018-03-24T10:47:28.911Z,8.70
2018-03-24T10:49:56.359Z,10.60
2018-03-24T10:52:24.013Z,8.20
2018-03-24T10:54:51.442Z,8.87
2018-03-24T10:57:19.260Z,8.30
2018-03-24T10:59:46.713Z,6.53
2018-03-24T11:02:14.153Z,5.93
2018-03-24T11:04:41.893Z,6.37
2018-03-24T11:07:09.337Z,6.50
2018-03-24T11:09:36.770Z,6.70
2018-03-24T11:12:04.222Z,6.03
2018-03-24T11:14:31.761Z,5.80
2018-03-24T11:16:59.217Z,6.00
2018-03-24T11:19:26.730Z,6.37
2018-03-24T11:21:54.188Z,6.17
2018-03-24T11:24:21.649Z,7.90
2018-03-24T11:26:49.093Z,6.50
2018-03-24T11:29:16.545Z,6.03
2018-03-24T11:31:44.007Z,6.60
2018-03-24T11:34:11.442Z,4.70
2018-03-24T11:36:40.386Z,5.50
2018-03-24T11:39:07.813Z,6.00
2018-03-24T11:41:35.288Z,5.90
2018-03-24T11:44:02.751Z,6.00
2018-03-24T11:46:30.192Z,5.43
2018-03-24T11:48:58.914Z,4.37
2018-03-24T11:51:26.368Z,5.40
2018-03-24T11:53:53.939Z,4.83
2018-03-24T11:56:21.418Z,6.13
2018-03-24T11:58:48.852Z,5.40
2018-03-24T12:01:16.320Z,5.00
2018-03-24T12:03:44.266Z,4.83
2018-03-24T12:06:11.779Z,5.90
2018-03-24T12:08:39.290Z,5.70
2018-03-24T12:11:06.742Z,7.73
2018-03-24T12:13:34.204Z,5.93
2018-03-24T12:16:01.646Z,6.40
2018-03-24T12:18:29.877Z,5.77
2018-03-24T12:20:57.312Z,5.13
2018-03-24T12:23:24.760Z,7.47
2018-03-24T12:25:52.266Z,5.70
2018-03-24T12:28:19.708Z,5.60
2018-03-24T12:30:47.290Z,4.67
2018-03-24T12:33:14.773Z,5.73
2018-03-24T12:35:42.214Z,6.00
2018-03-24T12:38:09.660Z,5.03
2018-03-24T12:40:37.101Z,4.53
2018-03-24T12:43:04.613Z,4.90
2018-03-24T12:45:32.053Z,5.60
2018-03-24T12:47:59.533Z,4.43
2018-03-24T12:50:27.017Z,4.83
2018-03-24T12:52:54.556Z,4.90
2018-03-24T12:55:21.994Z,4.90
2018-03-24T12:57:49.476Z,4.80
2018-03-24T13:00:16.922Z,5.00
2018-03-24T13:02:50.000Z,5.73
2018-03-24T13:05:17.438Z,5.77
2018-03-24T13:07:45.665Z,4.30
2018-03-24T13:10:13.406Z,4.80
2018-03-24T13:12:41.298Z,5.67
2018-03-24T13:15:09.141Z,5.80
2018-03-24T13:17:36.578Z,4.00
2018-03-24T13:20:04.206Z,5.20
2018-03-24T13:22:31.740Z,4.07
2018-03-24T13:24:59.179Z,3.93
2018-03-24T13:27:26.981Z,3.93
2018-03-24T13:29:54.475Z,4.30
2018-03-24T13:32:22.340Z,3.97
2018-03-24T13:34:49.790Z,3.70
2018-03-24T13:37:17.225Z,4.07
2018-03-24T13:39:45.112Z,4.80
2018-03-24T13:42:12.578Z,3.87
2018-03-24T13:44:40.333Z,4.47
2018-03-24T13:47:07.805Z,3.40
2018-03-24T13:49:35.245Z,5.20
2018-03-24T13:52:02.702Z,3.63
2018-03-24T13:54:30.598Z,3.20
2018-03-24T13:56:58.089Z,4.23
2018-03-24T13:59:25.552Z,3.80
2018-03-24T14:01:53.002Z,5.00
2018-03-24T14:04:20.458Z,4.33
2018-03-24T14:06:47.907Z,3.77
2018-03-24T14:09:15.773Z,4.37
2018-03-24T14:11:43.279Z,4.47
2018-03-24T14:14:10.713Z,4.50
2018-03-24T14:16:38.168Z,3.40
2018-03-24T14:19:05.823Z,3.93
2018-03-24T14:21:33.317Z,4.90
2018-03-24T14:24:00.828Z,5.13
2018-03-24T14:26:28.349Z,4.13
2018-03-24T14:28:56.900Z,4.30
2018-03-24T14:31:24.360Z,3.60
2018-03-24T14:33:51.821Z,5.73
2018-03-24T14:36:19.268Z,3.73
2018-03-24T14:38:46.732Z,3.30
2018-03-24T14:41:14.194Z,4.93
2018-03-24T14:43:41.652Z,5.50
2018-03-24T14:46:09.105Z,4.70
2018-03-24T14:48:36.548Z,4.27
2018-03-24T14:51:04.254Z,4.80
2018-03-24T14:53:31.901Z,4.17
2018-03-24T14:55:59.333Z,3.97
2018-03-24T14:58:26.788Z,4.10
2018-03-24T15:00:54.322Z,3.73
2018-03-24T15:03:21.796Z,4.30
2018-03-24T15:05:49.325Z,4.70
2018-03-24T15:08:16.773Z,5.40
2018-03-24T15:10:44.229Z,4.80
2018-03-24T15:13:11.656Z,4.03
2018-03-24T15:15:39.866Z,4.60
2018-03-24T15:18:07.315Z,3.57
2018-03-24T15:20:37.282Z,3.40
2018-03-24T15:23:04.760Z,2.93
2018-03-24T15:25:33.701Z,3.30
2018-03-24T15:28:01.423Z,3.60
2018-03-24T15:30:40.732Z,4.43
2018-03-24T15:33:20.073Z,3.43
2018-03-24T15:35:59.260Z,4.37
2018-03-24T15:38:26.705Z,3.43
2018-03-24T15:40:54.152Z,4.43
2018-03-24T15:43:21.806Z,4.97
2018-03-24T15:45:49.238Z,4.80
2018-03-24T15:48:16.698Z,4.07
2018-03-24T15:50:44.137Z,5.30
2018-03-24T15:53:11.785Z,4.63
2018-03-24T15:55:39.230Z,4.90
2018-03-24T15:58:06.663Z,4.13
2018-03-24T16:00:34.125Z,3.90
2018-03-24T16:03:01.588Z,3.83
2018-03-24T16:05:29.046Z,4.10
2018-03-24T16:07:56.487Z,3.90
2018-03-24T16:10:26.711Z,4.70
2018-03-24T16:12:54.439Z,3.20
2018-03-24T16:15:21.908Z,4.87
2018-03-24T16:17:49.834Z,4.67
2018-03-24T16:20:17.261Z,4.20
2018-03-24T16:22:44.782Z,5.00
2018-03-24T16:25:12.225Z,3.73
2018-03-24T16:27:39.721Z,4.77
2018-03-24T16:30:08.166Z,4.40
2018-03-24T16:32:35.645Z,4.57
2018-03-24T16:35:03.086Z,4.77
2018-03-24T16:37:30.531Z,4.00
2018-03-24T16:39:58.033Z,4.37
2018-03-24T16:42:25.500Z,5.73
2018-03-24T16:44:52.952Z,4.87
2018-03-24T16:47:20.399Z,5.07
2018-03-24T16:49:47.866Z,4.50
2018-03-24T16:52:15.305Z,3.80
2018-03-24T16:54:42.762Z,3.60
2018-03-24T16:57:10.220Z,4.07
2018-03-24T16:59:37.731Z,4.73
2018-03-24T17:02:05.177Z,4.50
2018-03-24T17:04:32.615Z,3.87
2018-03-24T17:07:00.065Z,4.23
2018-03-24T17:09:27.649Z,5.37
2018-03-24T17:11:55.079Z,3.93
2018-03-24T17:14:22.516Z,3.70
2018-03-24T17:16:50.718Z,4.43
2018-03-24T17:19:18.196Z,4.70
2018-03-24T17:21:45.975Z,5.77
2018-03-24T17:24:13.420Z,3.93
2018-03-24T17:26:41.005Z,4.00
2018-03-24T17:29:08.434Z,3.70
2018-03-24T17:31:35.980Z,5.87
2018-03-24T17:34:03.429Z,4.97
2018-03-24T17:36:31.653Z,4.13
2018-03-24T17:38:59.269Z,3.53
2018-03-24T17:41:26.720Z,4.43
2018-03-24T17:43:54.633Z,6.70
2018-03-24T17:46:22.087Z,4.70
2018-03-24T17:48:49.744Z,5.00
2018-03-24T17:51:17.162Z,4.37
2018-03-24T17:53:44.604Z,4.50
2018-03-24T17:56:12.193Z,5.53
2018-03-24T17:58:39.691Z,3.73
2018-03-24T18:01:07.289Z,4.83
2018-03-24T18:03:34.984Z,8.60
2018-03-24T18:06:02.426Z,7.20
2018-03-24T18:08:29.857Z,3.73
2018-03-24T18:10:57.379Z,4.30
2018-03-24T18:13:24.833Z,5.07
2018-03-24T18:15:52.284Z,4.70
2018-03-24T18:18:19.732Z,4.47
2018-03-24T18:20:47.167Z,4.23
2018-03-24T18:23:14.869Z,6.20
2018-03-24T18:25:42.318Z,6.23
2018-03-24T18:28:09.804Z,5.50
2018-03-24T18:30:37.259Z,6.10
2018-03-24T18:33:04.706Z,4.87
2018-03-24T18:35:32.160Z,6.67
2018-03-24T18:37:59.601Z,4.93
2018-03-24T18:40:28.741Z,4.17
2018-03-24T18:42:56.198Z,4.50
2018-03-24T18:45:23.642Z,5.20
2018-03-24T18:47:52.010Z,7.03
2018-03-24T18:50:19.509Z,4.97
2018-03-24T18:52:47.888Z,5.87
2018-03-24T18:55:15.331Z,5.23
2018-03-24T18:57:42.796Z,5.20
2018-03-24T19:00:10.286Z,4.53
2018-03-24T19:02:37.730Z,6.00
2018-03-24T19:05:05.358Z,6.17
2018-03-24T19:07:32.809Z,6.20
2018-03-24T19:10:00.261Z,5.40
2018-03-24T19:12:27.722Z,9.00
2018-03-24T19:14:55.153Z,4.57
2018-03-24T19:17:22.593Z,5.93
2018-03-24T19:19:50.049Z,6.17
2018-03-24T19:22:17.531Z,6.30
2018-03-24T19:24:44.986Z,4.97
2018-03-24T19:27:12.427Z,5.97
2018-03-24T19:29:39.860Z,5.23
2018-03-24T19:32:07.313Z,6.30
2018-03-24T19:34:34.904Z,6.20
2018-03-24T19:37:02.364Z,6.93
2018-03-24T19:39:29.806Z,4.27
2018-03-24T19:41:57.249Z,5.30
2018-03-24T19:44:25.464Z,5.70
2018-03-24T19:46:53.218Z,5.23
2018-03-24T19:49:20.661Z,5.87
2018-03-24T19:51:48.194Z,5.20
2018-03-24T19:54:15.625Z,5.77
2018-03-24T19:56:43.086Z,6.07
2018-03-24T19:59:10.525Z,6.23
2018-03-24T20:01:38.003Z,4.87
2018-03-24T20:04:05.445Z,5.77
2018-03-24T20:06:32.878Z,7.87
2018-03-24T20:09:00.334Z,6.23
2018-03-24T20:11:27.774Z,5.10
2018-03-24T20:13:55.458Z,5.10
2018-03-24T20:16:22.893Z,5.80
2018-03-24T20:18:50.325Z,4.57
2018-03-24T20:21:17.794Z,4.87
2018-03-24T20:23:45.234Z,4.50
2018-03-24T20:26:12.689Z,5.83
2018-03-24T20:28:40.142Z,5.67
2018-03-24T20:31:07.686Z,5.37
2018-03-24T20:33:35.422Z,5.20
2018-03-24T20:36:02.873Z,7.20
2018-03-24T20:38:30.321Z,6.20
2018-03-24T20:40:57.760Z,4.47
2018-03-24T20:43:25.276Z,5.90
2018-03-24T20:45:52.724Z,6.23
2018-03-24T20:48:20.158Z,5.30
2018-03-24T20:50:47.614Z,4.77
2018-03-24T20:53:15.058Z,4.90
2018-03-24T20:55:43.277Z,4.33
2018-03-24T20:58:10.733Z,5.37
2018-03-24T21:00:38.547Z,6.10
2018-03-24T21:03:06.100Z,6.30
2018-03-24T21:05:33.533Z,4.80
2018-03-24T21:08:00.984Z,4.63
2018-03-24T21:10:28.437Z,6.07
2018-03-24T21:12:55.897Z,7.80
2018-03-24T21:15:24.096Z,5.33
2018-03-24T21:17:52.238Z,6.20
2018-03-24T21:20:19.690Z,4.80
2018-03-24T21:22:47.141Z,6.20
2018-03-24T21:25:15.347Z,4.83
2018-03-24T21:27:42.801Z,5.27
2018-03-24T21:30:10.926Z,5.80
2018-03-24T21:32:38.362Z,5.57
2018-03-24T21:35:05.813Z,4.07
2018-03-24T21:37:33.258Z,3.93
2018-03-24T21:40:00.788Z,5.97
2018-03-24T21:42:28.225Z,6.50
2018-03-24T21:44:55.670Z,6.67
2018-03-24T21:47:23.113Z,6.07
2018-03-24T21:49:50.549Z,5.10
2018-03-24T21:52:18.781Z,6.33
2018-03-24T21:54:46.214Z,4.97
2018-03-24T21:57:13.654Z,6.00
2018-03-24T21:59:41.104Z,4.80
2018-03-24T22:02:08.566Z,5.90
2018-03-24T22:04:36.227Z,5.00
2018-03-24T22:07:03.658Z,6.13
2018-03-24T22:09:31.118Z,5.27
2018-03-24T22:12:06.125Z,6.13
2018-03-24T22:14:33.566Z,6.80
2018-03-24T22:17:01.025Z,5.00
2018-03-24T22:19:29.249Z,5.27
2018-03-24T22:21:56.700Z,4.07
2018-03-24T22:24:30.374Z,6.70
2018-03-24T22:26:57.873Z,6.13
2018-03-24T22:29:25.398Z,7.30
2018-03-24T22:31:52.856Z,5.80
2018-03-24T22:34:21.096Z,7.57
2018-03-24T22:36:48.536Z,7.10
2018-03-24T22:39:15.991Z,5.00
2018-03-24T22:41:43.453Z,7.80
2018-03-24T22:44:10.894Z,5.33
2018-03-24T22:46:38.705Z,5.43
2018-03-24T22:49:06.157Z,6.67
2018-03-24T22:51:33.615Z,7.97
2018-03-24T22:54:01.053Z,6.30
2018-03-24T22:56:28.761Z,6.00
2018-03-24T22:58:56.202Z,6.37
2018-03-24T23:01:23.682Z,6.07
2018-03-24T23:03:51.120Z,5.80
2018-03-24T23:06:18.972Z,6.53
2018-03-24T23:08:46.380Z,6.00
2018-03-24T23:11:13.834Z,6.97
2018-03-24T23:13:41.298Z,6.07
2018-03-24T23:16:08.784Z,6.70
2018-03-24T23:18:36.424Z,6.07
2018-03-24T23:21:03.884Z,5.90
2018-03-24T23:23:31.340Z,4.73
2018-03-24T23:25:58.793Z,5.97
2018-03-24T23:28:26.240Z,6.40
2018-03-24T23:30:53.700Z,5.93
2018-03-24T23:33:21.165Z,8.13
2018-03-24T23:35:48.622Z,6.30
2018-03-24T23:38:16.073Z,7.23
2018-03-24T23:40:43.508Z,5.70
2018-03-24T23:43:11.032Z,5.97
2018-03-24T23:45:38.484Z,5.97
2018-03-24T23:48:05.964Z,6.50
2018-03-24T23:50:33.412Z,6.27
2018-03-24T23:53:00.899Z,5.80
2018-03-24T23:55:28.312Z,7.23
2018-03-24T23:57:55.897Z,6.80
